Time;durP1;ratioP1;P1;durP2;ratioP2;P2;SDS_P1;SDS_P2;PMS_P1;PMS_P2;Temp;Humidity;BMP_temperature;BMP_pressure;BME280_temperature;BME280_humidity;BME280_pressure;Samples;Min_cycle;Max_cycle;Signal;HPM_P1;HPM_P2
2022/04/25 00:01:13;;;;;;;5.90;5.50;;;9.50;99.90;;;;;;5049881;28;20195;-74
2022/04/25 00:03:38;;;;;;;6.60;6.10;;;9.60;99.90;;;;;;5048284;28;20164;-73
2022/04/25 00:06:04;;;;;;;6.38;5.88;;;9.50;99.90;;;;;;5040178;28;20205;-73
2022/04/25 00:08:30;;;;;;;6.90;6.30;;;9.40;99.90;;;;;;5043124;28;20179;-74
2022/04/25 00:10:56;;;;;;;6.53;6.03;;;9.50;99.90;;;;;;5041295;28;20182;-74
2022/04/25 00:13:22;;;;;;;7.03;6.40;;;9.40;99.90;;;;;;5054483;28;20180;-74
2022/04/25 00:15:47;;;;;;;6.82;6.32;;;9.30;99.90;;;;;;5044868;28;20207;-74
2022/04/25 00:18:13;;;;;;;6.80;6.30;;;9.40;99.90;;;;;;5051727;28;20222;-74
2022/04/25 00:20:39;;;;;;;6.53;6.03;;;9.40;99.90;;;;;;5047662;28;20167;-73
2022/04/25 00:23:05;;;;;;;6.10;5.60;;;9.40;99.90;;;;;;5030925;28;20181;-73
2022/04/25 00:25:32;;;;;;;5.40;5.00;;;9.40;99.90;;;;;;5046434;28;20741;-74
2022/04/25 00:27:59;;;;;;;6.03;5.53;;;9.50;99.90;;;;;;5041659;28;20246;-73
2022/04/25 00:30:25;;;;;;;6.35;5.85;;;9.60;99.90;;;;;;5045209;28;20200;-73
2022/04/25 00:32:51;;;;;;;5.78;5.38;;;9.60;99.90;;;;;;5051175;28;20173;-73
2022/04/25 00:35:17;;;;;;;6.80;6.30;;;9.60;99.90;;;;;;5029343;28;20208;-74
2022/04/25 00:37:43;;;;;;;6.65;6.15;;;9.50;99.90;;;;;;5045456;28;20171;-75
2022/04/25 00:40:10;;;;;;;6.50;6.00;;;9.30;99.90;;;;;;5047966;28;20176;-74
2022/04/25 00:42:36;;;;;;;6.45;5.95;;;9.30;99.90;;;;;;5050172;28;20366;-73
2022/04/25 00:45:02;;;;;;;7.13;6.53;;;9.20;99.90;;;;;;5047530;28;20245;-73
2022/04/25 00:47:28;;;;;;;8.00;7.32;;;9.20;99.90;;;;;;5039373;28;20189;-73
2022/04/25 00:49:54;;;;;;;6.05;5.45;;;9.20;99.90;;;;;;5048866;28;20567;-73
2022/04/25 00:52:20;;;;;;;8.23;7.47;;;9.20;99.90;;;;;;5049852;28;20184;-73
2022/04/25 00:54:46;;;;;;;7.90;7.20;;;9.20;99.90;;;;;;5042396;28;20211;-74
2022/04/25 00:57:12;;;;;;;7.15;6.57;;;9.20;99.90;;;;;;5041051;28;20192;-74
2022/04/25 00:59:38;;;;;;;6.95;6.45;;;9.20;99.90;;;;;;5050662;28;20209;-74
2022/04/25 01:02:06;;;;;;;6.20;5.70;;;9.20;99.90;;;;;;5048705;28;20453;-74
2022/04/25 01:04:32;;;;;;;5.72;5.22;;;9.30;99.90;;;;;;5047905;28;20560;-74
2022/04/25 01:06:58;;;;;;;7.30;6.60;;;9.30;99.90;;;;;;5043409;28;20264;-74
2022/04/25 01:09:25;;;;;;;7.97;7.28;;;9.30;99.90;;;;;;5049243;28;20179;-74
2022/04/25 01:11:52;;;;;;;7.55;6.95;;;9.40;99.90;;;;;;5047243;28;20234;-74
2022/04/25 01:14:20;;;;;;;6.82;6.32;;;9.50;99.90;;;;;;5039020;28;20292;-74
2022/04/25 01:16:50;;;;;;;7.13;6.53;;;9.50;99.90;;;;;;5049954;28;20237;-74
2022/04/25 01:19:15;;;;;;;7.10;6.60;;;9.40;99.90;;;;;;5049948;28;20181;-73
2022/04/25 01:22:02;;;;;;;7.53;6.93;;;9.40;99.90;;;;;;5054913;28;20356;-73
2022/04/25 01:27:18;;;;;;;7.35;6.75;;;9.40;99.90;;;;;;5051483;28;20186;-73
2022/04/25 01:29:47;;;;;;;7.60;6.90;;;9.60;99.90;;;;;;5047015;28;20168;-73
2022/04/25 01:32:13;;;;;;;7.68;6.97;;;9.60;99.90;;;;;;5035256;28;20183;-74
2022/04/25 01:34:39;;;;;;;7.63;7.00;;;9.60;99.90;;;;;;5049710;28;20203;-74
2022/04/25 01:37:07;;;;;;;7.82;7.18;;;9.50;99.90;;;;;;5052737;28;20180;-74
2022/04/25 01:39:52;;;;;;;9.20;8.40;;;9.40;99.90;;;;;;5055149;28;20184;-75
2022/04/25 01:42:20;;;;;;;8.98;8.25;;;9.40;99.90;;;;;;5049266;28;20674;-74
2022/04/25 01:44:46;;;;;;;8.32;7.53;;;9.50;99.90;;;;;;5041987;28;20195;-74
2022/04/25 01:47:12;;;;;;;9.35;8.52;;;9.40;99.90;;;;;;5052532;28;20235;-74
2022/04/25 01:49:38;;;;;;;8.25;7.55;;;9.40;99.90;;;;;;5050543;28;20179;-74
2022/04/25 01:52:27;;;;;;;8.35;7.55;;;9.40;99.90;;;;;;5047242;28;20255;-74
2022/04/25 01:54:53;;;;;;;8.95;8.15;;;9.40;99.90;;;;;;5053222;28;20590;-73
2022/04/25 01:57:18;;;;;;;8.00;7.25;;;9.40;99.90;;;;;;5052740;28;20222;-73
2022/04/25 01:59:45;;;;;;;9.60;8.75;;;9.30;99.90;;;;;;5053623;28;20184;-73
2022/04/25 02:02:11;;;;;;;9.23;8.43;;;9.30;99.90;;;;;;5050938;28;20207;-74
2022/04/25 02:04:38;;;;;;;8.95;8.15;;;9.30;99.90;;;;;;5047850;28;20210;-74
2022/04/25 02:07:05;;;;;;;9.18;8.38;;;9.30;99.90;;;;;;5052442;28;20191;-75
2022/04/25 02:09:31;;;;;;;9.68;8.77;;;9.40;99.90;;;;;;5047487;28;20261;-76
2022/04/25 02:11:57;;;;;;;7.35;6.65;;;9.40;99.90;;;;;;5044673;28;20641;-76
2022/04/25 02:14:22;;;;;;;9.80;8.90;;;9.40;99.90;;;;;;5041659;28;20218;-74
2022/04/25 02:16:48;;;;;;;10.02;9.13;;;9.50;99.90;;;;;;5040114;28;20188;-74
2022/04/25 02:19:14;;;;;;;10.18;9.18;;;9.40;99.90;;;;;;5038833;28;20238;-74
2022/04/25 02:21:40;;;;;;;8.88;8.07;;;9.40;99.90;;;;;;5046673;28;20199;-74
2022/04/25 02:24:05;;;;;;;9.43;8.52;;;9.40;99.90;;;;;;5041133;28;20277;-75
2022/04/25 02:26:31;;;;;;;11.30;10.30;;;9.40;99.90;;;;;;5041880;28;20176;-74
2022/04/25 02:28:57;;;;;;;9.93;9.10;;;9.30;99.90;;;;;;5046844;28;20640;-74
2022/04/25 02:31:26;;;;;;;10.27;9.27;;;9.20;99.90;;;;;;5041909;28;20238;-74
2022/04/25 02:33:52;;;;;;;10.38;9.50;;;9.20;99.90;;;;;;5039660;28;20698;-74
2022/04/25 02:36:17;;;;;;;10.07;9.07;;;9.10;99.90;;;;;;5045991;28;20196;-73
2022/04/25 02:38:43;;;;;;;10.75;9.75;;;9.20;99.90;;;;;;5042869;28;20188;-74
2022/04/25 02:41:09;;;;;;;11.27;10.27;;;9.20;99.90;;;;;;5037695;28;20220;-74
2022/04/25 02:43:40;;;;;;;11.02;9.93;;;9.20;99.90;;;;;;5044396;28;20263;-74
2022/04/25 02:46:14;;;;;;;11.10;9.90;;;9.10;99.90;;;;;;5028901;28;20195;-74
2022/04/25 02:48:42;;;;;;;11.00;10.00;;;9.10;99.90;;;;;;5042211;28;20254;-73
2022/04/25 02:51:08;;;;;;;11.10;10.10;;;9.20;99.90;;;;;;5039903;28;20185;-73
2022/04/25 02:53:35;;;;;;;11.45;10.45;;;9.20;99.90;;;;;;5027619;28;20180;-73
2022/04/25 02:56:02;;;;;;;11.18;10.07;;;9.30;99.90;;;;;;5039207;28;20197;-73
2022/04/25 02:58:29;;;;;;;12.38;11.27;;;9.20;99.90;;;;;;5040344;28;20192;-73
2022/04/25 03:00:55;;;;;;;12.00;10.88;;;9.20;99.90;;;;;;5038894;28;20575;-73
2022/04/25 03:03:21;;;;;;;11.40;10.30;;;9.20;99.90;;;;;;5030916;28;20180;-73
2022/04/25 03:05:49;;;;;;;12.77;11.57;;;9.30;99.90;;;;;;5028042;28;20262;-73
2022/04/25 03:08:19;;;;;;;12.45;11.15;;;9.20;99.90;;;;;;5042944;28;20188;-73
2022/04/25 03:10:47;;;;;;;12.02;10.93;;;9.20;99.90;;;;;;5038343;28;20172;-73
2022/04/25 03:13:14;;;;;;;12.55;11.35;;;9.10;99.90;;;;;;5043649;28;20249;-74
2022/04/25 03:15:40;;;;;;;13.20;12.02;;;9.10;99.90;;;;;;5042525;28;20688;-75
2022/04/25 03:18:13;;;;;;;13.50;12.10;;;9.10;99.90;;;;;;5051432;28;20183;-74
2022/04/25 03:20:41;;;;;;;13.65;12.23;;;9.00;99.90;;;;;;5046863;28;20673;-75
2022/04/25 03:23:07;;;;;;;14.65;12.13;;;8.90;99.90;;;;;;5056999;28;20681;-74
2022/04/25 03:25:33;;;;;;;13.07;11.75;;;8.90;99.90;;;;;;5051624;28;20187;-74
2022/04/25 03:28:00;;;;;;;13.82;12.43;;;9.00;99.90;;;;;;5052587;28;20172;-74
2022/04/25 03:30:27;;;;;;;13.63;12.32;;;9.00;99.90;;;;;;5045148;28;20259;-75
2022/04/25 03:32:53;;;;;;;14.70;13.23;;;9.00;99.90;;;;;;5040942;28;20234;-74
2022/04/25 03:35:23;;;;;;;13.38;12.13;;;8.90;99.90;;;;;;5048981;28;20199;-74
2022/04/25 03:37:51;;;;;;;13.88;12.57;;;8.90;99.90;;;;;;5044576;28;20199;-74
2022/04/25 03:40:17;;;;;;;14.02;12.63;;;8.90;99.90;;;;;;5049538;28;20184;-74
2022/04/25 03:42:47;;;;;;;13.15;11.82;;;8.90;99.90;;;;;;5048347;28;20200;-74
2022/04/25 03:45:17;;;;;;;13.95;12.55;;;8.90;99.90;;;;;;5050138;28;20204;-74
2022/04/25 03:47:44;;;;;;;14.98;13.38;;;9.00;99.90;;;;;;5050132;28;20183;-74
2022/04/25 03:50:11;;;;;;;13.52;12.23;;;9.00;99.90;;;;;;5051525;28;20191;-74
2022/04/25 03:52:38;;;;;;;14.82;13.43;;;9.00;99.90;;;;;;5050456;28;20838;-74
2022/04/25 03:57:49;;;;;;;14.98;13.55;;;9.10;99.90;;;;;;5050474;28;20218;-73
2022/04/25 04:00:15;;;;;;;15.20;13.65;;;9.10;99.90;;;;;;5050557;28;20184;-73
2022/04/25 04:02:40;;;;;;;14.18;12.73;;;9.10;99.90;;;;;;5032749;28;20200;-73
2022/04/25 04:05:06;;;;;;;15.75;14.18;;;9.10;99.90;;;;;;5050371;28;20214;-74
2022/04/25 04:07:32;;;;;;;14.57;12.80;;;9.10;99.90;;;;;;5042758;28;20204;-75
2022/04/25 04:09:58;;;;;;;15.50;13.98;;;9.10;99.90;;;;;;5049840;28;20700;-74
2022/04/25 04:12:30;;;;;;;17.02;14.45;;;9.10;99.90;;;;;;5044613;28;20267;-74
2022/04/25 04:14:56;;;;;;;15.10;13.50;;;9.10;99.90;;;;;;5047993;28;20199;-74
2022/04/25 04:17:22;;;;;;;15.95;14.35;;;9.10;99.90;;;;;;5049242;28;20553;-74
2022/04/25 04:19:48;;;;;;;16.58;14.88;;;9.10;99.90;;;;;;5041293;28;20184;-74
2022/04/25 04:22:15;;;;;;;15.85;14.27;;;9.10;99.90;;;;;;5040603;28;20196;-74
2022/04/25 04:24:40;;;;;;;16.73;14.93;;;9.10;99.90;;;;;;5034842;28;20673;-73
2022/04/25 04:27:06;;;;;;;16.70;14.35;;;9.10;99.90;;;;;;5042365;28;20223;-74
2022/04/25 04:29:33;;;;;;;16.98;15.27;;;9.00;99.90;;;;;;5039167;28;20176;-73
2022/04/25 04:32:01;;;;;;;17.65;14.63;;;9.00;99.90;;;;;;5040699;28;20175;-74
2022/04/25 04:34:27;;;;;;;15.85;14.32;;;9.10;99.90;;;;;;5044476;28;20253;-74
2022/04/25 04:36:53;;;;;;;16.38;14.68;;;9.00;99.90;;;;;;5050880;28;20284;-75
2022/04/25 04:39:19;;;;;;;16.48;14.90;;;9.10;99.90;;;;;;5042226;28;20672;-74
2022/04/25 04:41:45;;;;;;;15.48;13.88;;;9.10;99.90;;;;;;5039612;28;20208;-76
2022/04/25 04:44:11;;;;;;;18.15;16.27;;;9.30;99.90;;;;;;5049763;28;20191;-77
2022/04/25 04:46:37;;;;;;;17.27;15.68;;;9.20;99.90;;;;;;5044059;28;21186;-77
2022/04/25 04:49:03;;;;;;;17.63;15.82;;;9.20;99.90;;;;;;5049064;28;20172;-77
2022/04/25 04:51:28;;;;;;;18.17;16.33;;;9.20;99.90;;;;;;5053015;28;20186;-75
2022/04/25 04:53:54;;;;;;;17.85;15.80;;;9.20;99.90;;;;;;5042511;28;20206;-74
2022/04/25 04:56:19;;;;;;;17.27;15.60;;;9.20;99.90;;;;;;5032206;28;20211;-74
2022/04/25 04:58:48;;;;;;;11.63;10.52;;;9.20;99.90;;;;;;5052797;28;20199;-75
2022/04/25 05:01:13;;;;;;;8.38;7.70;;;9.10;99.90;;;;;;5052906;28;20227;-76
2022/04/25 05:03:41;;;;;;;8.73;7.88;;;9.00;99.90;;;;;;5047297;28;20207;-76
2022/04/25 05:06:07;;;;;;;9.20;8.32;;;9.00;99.90;;;;;;5042815;28;20204;-76
2022/04/25 05:08:33;;;;;;;7.75;7.05;;;8.90;99.90;;;;;;5035952;28;20677;-76
2022/04/25 05:10:58;;;;;;;8.85;8.05;;;8.80;99.90;;;;;;5053974;28;20172;-77
2022/04/25 05:13:24;;;;;;;8.35;7.55;;;8.80;99.90;;;;;;5053771;28;20229;-77
2022/04/25 05:15:49;;;;;;;8.80;8.05;;;8.70;99.90;;;;;;5052685;28;20270;-76
2022/04/25 05:18:15;;;;;;;7.80;7.20;;;8.60;99.90;;;;;;5047990;28;20191;-73
2022/04/25 05:20:41;;;;;;;9.95;8.23;;;8.60;99.90;;;;;;5040765;28;20184;-74
2022/04/25 05:23:10;;;;;;;10.00;9.07;;;8.60;99.90;;;;;;5043021;28;20182;-75
2022/04/25 05:25:38;;;;;;;8.35;7.65;;;8.60;99.90;;;;;;5037464;28;20607;-73
2022/04/25 05:28:05;;;;;;;7.93;7.32;;;8.50;99.90;;;;;;5041576;28;20183;-74
2022/04/25 05:30:32;;;;;;;8.98;8.13;;;8.50;99.90;;;;;;5020738;28;20655;-74
2022/04/25 05:33:02;;;;;;;8.45;7.63;;;8.50;99.90;;;;;;5040060;28;20187;-74
2022/04/25 05:35:29;;;;;;;9.18;8.32;;;8.40;99.90;;;;;;5041358;28;20234;-75
2022/04/25 05:37:56;;;;;;;8.38;7.68;;;8.50;99.90;;;;;;5025910;28;20177;-75
2022/04/25 05:40:22;;;;;;;8.43;7.60;;;8.50;99.90;;;;;;5046918;28;20233;-76
2022/04/25 05:42:49;;;;;;;8.85;8.02;;;8.50;99.90;;;;;;5040198;28;20610;-75
2022/04/25 05:45:18;;;;;;;8.05;7.45;;;8.60;99.90;;;;;;5043805;28;20586;-75
2022/04/25 05:47:43;;;;;;;8.38;7.57;;;8.70;99.90;;;;;;5047479;28;20176;-75
2022/04/25 05:52:58;;;;;;;9.48;7.68;;;8.80;99.90;;;;;;5043816;28;20551;-75
2022/04/25 05:55:24;;;;;;;7.63;6.97;;;8.90;99.90;;;;;;5043654;28;20196;-76
2022/04/25 05:57:53;;;;;;;6.80;6.30;;;8.90;99.90;;;;;;5046218;28;20631;-75
2022/04/25 06:00:19;;;;;;;8.38;7.57;;;8.90;99.90;;;;;;5049058;28;20194;-75
2022/04/25 06:02:46;;;;;;;6.82;6.22;;;9.00;99.90;;;;;;5045386;28;20287;-74
2022/04/25 06:05:15;;;;;;;6.70;6.20;;;9.10;99.90;;;;;;5035037;28;20195;-74
2022/04/25 06:07:45;;;;;;;7.60;7.00;;;9.00;99.90;;;;;;5048124;28;20708;-74
2022/04/25 06:10:12;;;;;;;7.30;6.72;;;9.00;99.90;;;;;;5047522;28;20203;-74
2022/04/25 06:12:43;;;;;;;6.50;6.00;;;9.00;99.90;;;;;;5045914;28;20180;-74
2022/04/25 06:15:09;;;;;;;7.47;6.88;;;9.10;99.90;;;;;;5039381;28;20288;-74
2022/04/25 06:17:36;;;;;;;7.28;6.75;;;9.10;99.90;;;;;;5030599;28;20184;-73
2022/04/25 06:20:03;;;;;;;7.40;6.75;;;9.20;99.90;;;;;;5044718;28;20176;-74
2022/04/25 06:22:29;;;;;;;7.50;6.88;;;9.30;99.90;;;;;;5043013;28;20242;-74
2022/04/25 06:24:54;;;;;;;6.05;5.55;;;9.40;99.90;;;;;;5043980;28;20224;-74
2022/04/25 06:27:20;;;;;;;6.20;5.70;;;9.40;99.90;;;;;;5043927;28;20609;-73
2022/04/25 06:29:46;;;;;;;7.03;6.43;;;9.40;99.90;;;;;;5041813;28;20177;-75
2022/04/25 06:32:12;;;;;;;6.60;6.07;;;9.50;99.90;;;;;;5045084;28;20184;-73
2022/04/25 06:34:38;;;;;;;6.00;5.45;;;9.60;99.90;;;;;;5043262;28;20207;-74
2022/04/25 06:37:05;;;;;;;6.88;6.38;;;9.80;99.90;;;;;;5045550;28;20184;-74
2022/04/25 06:39:31;;;;;;;7.20;6.60;;;9.90;99.90;;;;;;5040365;28;20176;-74
2022/04/25 06:41:56;;;;;;;6.53;6.03;;;9.90;99.90;;;;;;5037939;28;20219;-72
2022/04/25 06:44:22;;;;;;;6.68;6.18;;;10.10;99.90;;;;;;5042897;28;20199;-72
2022/04/25 06:46:48;;;;;;;6.53;6.03;;;10.20;99.90;;;;;;5041249;28;20535;-72
2022/04/25 06:49:34;;;;;;;5.53;5.13;;;10.10;99.90;;;;;;5044753;28;20172;-76
2022/04/25 06:52:00;;;;;;;6.72;6.13;;;10.30;99.90;;;;;;5040270;28;20563;-76
2022/04/25 06:54:28;;;;;;;6.07;5.68;;;10.30;99.90;;;;;;5045067;28;20231;-76
2022/04/25 06:56:55;;;;;;;6.63;6.07;;;10.40;99.90;;;;;;5025658;28;20187;-76
2022/04/25 06:59:22;;;;;;;6.20;5.70;;;10.30;99.90;;;;;;5048451;28;20186;-76
2022/04/25 07:01:49;;;;;;;6.38;5.85;;;10.40;99.90;;;;;;5048265;28;20221;-75
2022/04/25 07:04:16;;;;;;;6.70;6.20;;;10.60;99.90;;;;;;5043724;28;20407;-76
2022/04/25 07:06:42;;;;;;;5.60;5.20;;;10.70;99.90;;;;;;5051200;28;20168;-76
2022/04/25 07:09:07;;;;;;;6.35;5.75;;;10.80;99.90;;;;;;5030273;28;20647;-74
2022/04/25 07:11:33;;;;;;;6.25;5.65;;;11.00;99.90;;;;;;5037785;28;20223;-75
2022/04/25 07:14:02;;;;;;;6.72;6.22;;;11.00;99.90;;;;;;5042419;28;20193;-74
2022/04/25 07:16:28;;;;;;;6.15;5.68;;;11.00;99.90;;;;;;5043092;28;20545;-75
2022/04/25 07:18:54;;;;;;;5.80;5.40;;;11.30;99.90;;;;;;5038226;28;20173;-75
2022/04/25 07:29:32;;;;;;;4.97;4.53;;;11.50;99.90;;;;;;5039417;28;20242;-76
2022/04/25 07:31:58;;;;;;;6.20;5.70;;;11.70;99.90;;;;;;5046667;28;20184;-76
2022/04/25 07:34:23;;;;;;;6.82;6.32;;;11.80;99.90;;;;;;5041794;28;20667;-75
2022/04/25 07:36:51;;;;;;;6.10;5.63;;;11.70;99.90;;;;;;5041264;28;20223;-76
2022/04/25 07:39:21;;;;;;;6.85;6.22;;;11.60;99.90;;;;;;5042529;28;20184;-77
2022/04/25 07:41:48;;;;;;;7.13;6.45;;;11.60;99.90;;;;;;5038328;28;20208;-76
2022/04/25 07:44:14;;;;;;;5.65;5.22;;;11.40;99.90;;;;;;5034170;28;20172;-76
2022/04/25 07:46:45;;;;;;;7.25;6.65;;;11.30;99.90;;;;;;5041071;28;20174;-77
2022/04/25 07:49:11;;;;;;;5.45;4.95;;;11.30;99.90;;;;;;5046446;28;20180;-78
2022/04/25 07:51:40;;;;;;;7.43;6.72;;;11.40;99.90;;;;;;5024750;28;20287;-75
2022/04/25 07:54:08;;;;;;;6.70;6.10;;;11.50;99.90;;;;;;5041775;28;20180;-76
2022/04/25 07:56:35;;;;;;;6.18;5.68;;;11.70;99.90;;;;;;5021384;28;20184;-78
2022/04/25 07:59:01;;;;;;;6.43;5.93;;;11.90;99.90;;;;;;5047086;28;20195;-76
2022/04/25 08:01:28;;;;;;;5.93;5.53;;;11.70;99.90;;;;;;5038551;28;20673;-76
2022/04/25 08:03:55;;;;;;;6.18;5.68;;;11.70;99.90;;;;;;5038130;28;21247;-75
2022/04/25 08:06:20;;;;;;;5.80;5.35;;;11.90;99.90;;;;;;5045652;28;20581;-82
2022/04/25 08:08:48;;;;;;;6.75;6.15;;;12.00;99.90;;;;;;5031496;28;20176;-76
2022/04/25 08:11:14;;;;;;;6.47;5.97;;;12.10;99.90;;;;;;5045637;28;20215;-76
2022/04/25 08:19:08;;;;;;;6.90;6.40;;;12.90;99.90;;;;;;5039794;28;20250;-75
2022/04/25 08:21:34;;;;;;;6.30;5.70;;;13.30;99.90;;;;;;5042601;28;20191;-77
2022/04/25 08:24:02;;;;;;;6.10;5.50;;;13.80;99.90;;;;;;5049604;28;20270;-77
2022/04/25 08:26:27;;;;;;;5.55;5.20;;;13.70;99.90;;;;;;5044468;28;20226;-74
2022/04/25 08:28:54;;;;;;;5.68;5.28;;;13.60;99.90;;;;;;5037415;28;20193;-81
2022/04/25 08:31:21;;;;;;;5.15;4.75;;;13.40;99.90;;;;;;5036011;28;20179;-81
2022/04/25 08:33:48;;;;;;;5.45;5.05;;;13.70;99.90;;;;;;5041801;28;20188;-77
2022/04/25 08:36:16;;;;;;;5.43;5.03;;;13.50;99.90;;;;;;5041402;28;20258;-77
2022/04/25 08:38:43;;;;;;;5.05;4.75;;;13.60;99.90;;;;;;5045990;28;20547;-77
2022/04/25 08:41:14;;;;;;;5.03;4.72;;;13.90;99.90;;;;;;5040569;28;20203;-77
2022/04/25 08:43:40;;;;;;;4.85;4.53;;;14.00;99.90;;;;;;5037536;28;20203;-77
2022/04/25 08:46:11;;;;;;;4.68;4.38;;;14.00;99.90;;;;;;5041956;28;20205;-77
2022/04/25 08:48:39;;;;;;;4.38;4.07;;;13.80;99.90;;;;;;5036450;28;20183;-77
2022/04/25 08:51:07;;;;;;;4.30;4.00;;;13.80;99.90;;;;;;5036496;28;20211;-82
2022/04/25 08:53:34;;;;;;;4.45;4.15;;;14.10;99.90;;;;;;5045033;28;20184;-77
2022/04/25 08:56:03;;;;;;;4.45;4.15;;;14.30;99.90;;;;;;5040845;28;20319;-76
2022/04/25 08:58:31;;;;;;;4.22;3.92;;;14.50;99.90;;;;;;5040461;28;20559;-80
2022/04/25 09:00:58;;;;;;;4.38;3.97;;;14.70;99.90;;;;;;5044730;28;20234;-77
2022/04/25 09:03:24;;;;;;;4.93;4.50;;;14.80;99.90;;;;;;5046460;28;20180;-77
2022/04/25 09:05:50;;;;;;;3.63;3.42;;;14.80;99.90;;;;;;5039296;28;20509;-78
2022/04/25 09:08:16;;;;;;;3.88;3.67;;;14.70;99.90;;;;;;5045998;28;20180;-79
2022/04/25 09:10:44;;;;;;;2.85;2.65;;;14.90;99.90;;;;;;5041663;28;20263;-76
2022/04/25 09:13:11;;;;;;;4.03;3.78;;;15.00;99.90;;;;;;5042272;28;20177;-77
2022/04/25 09:15:37;;;;;;;3.97;3.10;;;15.30;99.90;;;;;;5037570;28;20204;-78
2022/04/25 09:18:03;;;;;;;3.22;3.00;;;15.80;99.90;;;;;;5047316;28;20180;-78
2022/04/25 09:20:29;;;;;;;3.90;3.60;;;16.10;99.90;;;;;;5041498;28;20211;-78
2022/04/25 09:22:55;;;;;;;3.55;3.35;;;16.40;99.90;;;;;;5056553;28;20212;-77
2022/04/25 09:25:21;;;;;;;3.30;3.10;;;16.50;99.90;;;;;;5056068;28;20203;-79
2022/04/25 09:27:47;;;;;;;2.88;2.67;;;16.40;99.90;;;;;;5051448;28;20177;-79
2022/04/25 09:30:18;;;;;;;3.75;3.45;;;16.70;99.90;;;;;;5039455;28;20683;-79
2022/04/25 09:32:44;;;;;;;3.78;3.53;;;16.80;99.90;;;;;;5051813;28;20175;-82
2022/04/25 09:35:32;;;;;;;3.80;3.50;;;17.00;99.90;;;;;;5053739;28;20274;-80
2022/04/25 09:38:05;;;;;;;3.22;3.03;;;17.50;99.90;;;;;;5045943;28;20503;-79
2022/04/25 09:40:36;;;;;;;3.63;3.42;;;17.70;99.90;;;;;;5049513;28;20255;-79
2022/04/25 09:43:08;;;;;;;2.42;2.33;;;17.70;99.90;;;;;;5059704;28;20569;-80
2022/04/25 09:45:37;;;;;;;3.05;2.85;;;17.50;99.90;;;;;;5054476;28;20278;-80
2022/04/25 09:48:18;;;;;;;2.63;2.53;;;17.20;99.90;;;;;;5052956;28;20583;-80
2022/04/25 09:51:16;;;;;;;2.67;2.47;;;17.30;99.90;;;;;;5056469;28;20177;-80
2022/04/25 09:53:49;;;;;;;2.55;2.45;;;17.40;99.90;;;;;;5041018;28;20186;-80
2022/04/25 09:56:20;;;;;;;2.60;2.50;;;17.40;99.90;;;;;;5048702;28;20207;-80
2022/04/25 09:59:08;;;;;;;2.50;2.35;;;17.70;99.90;;;;;;5051585;28;20200;-80
2022/04/25 10:01:39;;;;;;;2.90;2.70;;;17.40;99.90;;;;;;5054512;28;20208;-80
2022/04/25 10:04:06;;;;;;;3.03;2.88;;;16.90;99.90;;;;;;5045239;28;20183;-80
2022/04/25 10:06:34;;;;;;;3.58;3.38;;;16.20;99.90;;;;;;5046244;28;20187;-79
2022/04/25 10:09:05;;;;;;;3.00;2.80;;;15.80;99.90;;;;;;5048229;28;20176;-79
2022/04/25 10:11:34;;;;;;;3.50;3.20;;;15.50;99.90;;;;;;5060498;28;20207;-79
2022/04/25 10:14:00;;;;;;;3.60;3.28;;;15.30;99.90;;;;;;5056502;28;20176;-76
2022/04/25 10:16:28;;;;;;;3.50;3.30;;;15.00;99.90;;;;;;5041512;28;20207;-75
2022/04/25 10:18:54;;;;;;;3.78;3.58;;;14.90;99.90;;;;;;5045385;28;20187;-76
2022/04/25 10:21:22;;;;;;;3.25;3.05;;;14.90;99.90;;;;;;5041556;28;20207;-74
2022/04/25 10:23:49;;;;;;;3.80;3.50;;;15.00;99.90;;;;;;5045453;28;20173;-77
2022/04/25 10:26:15;;;;;;;3.35;3.15;;;14.90;99.90;;;;;;5042678;28;20204;-78
2022/04/25 10:28:48;;;;;;;3.33;3.13;;;14.90;99.90;;;;;;5049588;28;20183;-78
2022/04/25 10:31:24;;;;;;;2.80;2.70;;;14.80;99.90;;;;;;5043730;28;20180;-78
2022/04/25 10:33:54;;;;;;;2.70;2.60;;;15.00;99.90;;;;;;5042787;28;20175;-77
2022/04/25 10:36:38;;;;;;;2.72;2.53;;;15.30;99.90;;;;;;5040796;28;20212;-78
2022/04/25 10:39:27;;;;;;;3.00;2.90;;;15.70;99.90;;;;;;5047738;28;20192;-77
2022/04/25 10:44:36;;;;;;;3.00;2.90;;;18.10;99.90;;;;;;5043891;28;20263;-76
2022/04/25 10:47:05;;;;;;;2.80;2.70;;;20.40;99.90;;;;;;5042704;28;20211;-73
2022/04/25 10:49:48;;;;;;;2.50;2.40;;;22.40;97.10;;;;;;5042374;28;20172;-73
2022/04/25 10:52:33;;;;;;;3.40;3.10;;;23.80;86.50;;;;;;5044398;28;20192;-74
2022/04/25 10:55:29;;;;;;;3.10;2.90;;;23.50;79.20;;;;;;5043757;28;20584;-78
2022/04/25 10:58:04;;;;;;;2.90;2.70;;;22.50;78.90;;;;;;5037440;28;20287;-76
2022/04/25 11:00:43;;;;;;;3.05;2.65;;;20.90;81.80;;;;;;5040937;28;20615;-75
2022/04/25 11:03:08;;;;;;;2.75;2.55;;;20.00;86.30;;;;;;5041848;28;20274;-74
2022/04/25 11:05:35;;;;;;;2.55;2.45;;;18.90;89.70;;;;;;5037394;28;20204;-75
2022/04/25 11:08:24;;;;;;;2.50;2.35;;;18.00;91.40;;;;;;5046495;28;20180;-74
2022/04/25 11:11:08;;;;;;;2.70;2.58;;;17.00;93.20;;;;;;5034713;28;20192;-75
2022/04/25 11:13:56;;;;;;;2.83;2.60;;;16.00;97.40;;;;;;5041825;28;20267;-73
2022/04/25 11:16:26;;;;;;;2.85;2.65;;;15.20;99.90;;;;;;5037226;28;20226;-73
2022/04/25 11:19:20;;;;;;;2.60;2.50;;;14.70;99.90;;;;;;5039222;28;20172;-73
2022/04/25 11:21:55;;;;;;;2.63;2.42;;;14.30;99.90;;;;;;5049262;28;20274;-73
2022/04/25 11:24:35;;;;;;;2.25;2.15;;;14.10;99.90;;;;;;5045260;28;20194;-73
2022/04/25 11:27:02;;;;;;;2.72;2.63;;;14.00;99.90;;;;;;5040376;28;20176;-73
2022/04/25 11:29:28;;;;;;;2.50;2.40;;;13.90;99.90;;;;;;5039621;28;20192;-73
2022/04/25 11:32:30;;;;;;;2.83;2.63;;;13.90;99.90;;;;;;5046906;28;20207;-73
2022/04/25 11:35:00;;;;;;;3.08;2.88;;;13.90;99.90;;;;;;5046730;28;20245;-77
2022/04/25 11:37:30;;;;;;;2.88;2.78;;;13.70;99.90;;;;;;5040518;28;20188;-77
2022/04/25 11:40:02;;;;;;;2.15;2.05;;;13.80;99.90;;;;;;5046439;28;20187;-76
2022/04/25 11:42:30;;;;;;;2.72;2.60;;;14.00;99.90;;;;;;5041840;28;20274;-77
2022/04/25 11:44:57;;;;;;;2.15;2.05;;;14.40;99.90;;;;;;5040327;28;20200;-73
2022/04/25 11:47:23;;;;;;;2.30;2.10;;;14.70;99.90;;;;;;5044503;28;20188;-73
2022/04/25 11:49:55;;;;;;;2.38;2.28;;;15.20;99.90;;;;;;5049089;28;20233;-73
2022/04/25 11:52:22;;;;;;;2.60;2.50;;;15.40;99.90;;;;;;5045673;28;20192;-73
2022/04/25 11:54:48;;;;;;;2.10;2.00;;;15.80;99.90;;;;;;5053003;28;20676;-73
2022/04/25 11:57:14;;;;;;;2.95;2.78;;;16.20;99.90;;;;;;5042865;28;20199;-74
2022/04/25 11:59:39;;;;;;;2.72;2.63;;;16.20;99.90;;;;;;5044847;28;20267;-78
2022/04/25 12:02:05;;;;;;;3.35;3.15;;;16.20;99.90;;;;;;5040298;28;20242;-78
2022/04/25 12:04:33;;;;;;;2.55;2.35;;;16.30;99.90;;;;;;5035420;28;20551;-76
2022/04/25 12:07:03;;;;;;;2.33;2.22;;;16.80;99.90;;;;;;5038995;28;20730;-74
2022/04/25 12:15:34;;;;;;;3.83;2.60;;;19.40;97.50;;;;;;5041706;28;20723;-74
2022/04/25 12:18:27;;;;;;;2.42;2.33;;;20.00;95.40;;;;;;5046358;28;20714;-74
2022/04/25 12:21:03;;;;;;;2.53;2.42;;;21.40;91.70;;;;;;5041883;28;20180;-74
2022/04/25 12:23:41;;;;;;;2.30;2.20;;;21.90;88.80;;;;;;5043186;28;20180;-74
2022/04/25 12:26:19;;;;;;;2.53;2.42;;;22.30;85.20;;;;;;5044804;28;20753;-75
2022/04/25 12:29:12;;;;;;;2.30;2.20;;;23.00;80.40;;;;;;5049465;28;20279;-75
2022/04/25 12:31:46;;;;;;;2.60;2.50;;;23.10;78.50;;;;;;5047620;28;20841;-76
2022/04/25 12:34:12;;;;;;;2.60;2.35;;;23.50;75.50;;;;;;5041905;28;20172;-76
2022/04/25 12:36:39;;;;;;;2.70;2.60;;;23.50;74.20;;;;;;5049298;28;20188;-75
2022/04/25 12:39:15;;;;;;;2.00;2.00;;;23.70;73.90;;;;;;5049808;28;20204;-76
2022/04/25 12:41:56;;;;;;;2.10;2.00;;;24.70;69.60;;;;;;5047963;28;20203;-81
2022/04/25 12:44:22;;;;;;;2.35;2.25;;;25.80;65.90;;;;;;5043785;28;20200;-76
2022/04/25 12:46:59;;;;;;;2.10;2.00;;;27.50;59.20;;;;;;5049150;28;20172;-75
2022/04/25 12:49:39;;;;;;;1.83;1.75;;;28.60;55.00;;;;;;5047037;28;20192;-75
2022/04/25 12:52:10;;;;;;;2.05;1.95;;;28.90;52.70;;;;;;5044898;28;20180;-76
2022/04/25 12:54:42;;;;;;;2.10;2.00;;;29.20;51.20;;;;;;5046229;28;20215;-75
2022/04/25 12:57:17;;;;;;;1.80;1.80;;;28.30;51.00;;;;;;5050573;28;20193;-76
2022/04/25 12:59:44;;;;;;;1.67;1.60;;;27.60;51.90;;;;;;5051066;28;20204;-75
2022/04/25 13:02:16;;;;;;;1.85;1.70;;;27.50;51.40;;;;;;5050928;28;20667;-75
2022/04/25 13:04:58;;;;;;;2.25;2.15;;;26.80;52.50;;;;;;5042958;28;20200;-75
2022/04/25 13:07:28;;;;;;;2.10;2.00;;;25.80;55.60;;;;;;5047563;28;20283;-75
2022/04/25 13:09:58;;;;;;;1.70;1.70;;;26.70;53.90;;;;;;5047900;28;20176;-75
2022/04/25 13:12:39;;;;;;;2.15;2.05;;;27.80;51.60;;;;;;5052244;28;20184;-75
2022/04/25 13:15:10;;;;;;;2.22;2.13;;;27.70;52.20;;;;;;5037844;28;20560;-75
2022/04/25 13:17:36;;;;;;;2.00;1.90;;;27.90;52.60;;;;;;5037732;28;20248;-78
2022/04/25 13:20:04;;;;;;;1.92;1.83;;;28.40;52.60;;;;;;5041170;28;20204;-80
2022/04/25 13:22:30;;;;;;;1.80;1.70;;;31.20;48.10;;;;;;5053869;28;20203;-77
2022/04/25 13:24:55;;;;;;;2.60;2.50;;;31.50;46.30;;;;;;5054948;28;20530;-81
2022/04/25 13:27:21;;;;;;;2.25;2.15;;;31.80;47.80;;;;;;5030686;28;20274;-75